Time;durP1;ratioP1;P1;durP2;ratioP2;P2;SDS_P1;SDS_P2;PMS_P1;PMS_P2;Temp;Humidity;BMP_temperature;BMP_pressure;BME280_temperature;BME280_humidity;BME280_pressure;Samples;Min_cycle;Max_cycle;Signal;HPM_P1;HPM_P2
2022/08/31 00:05:23;;;;;;;1.27;1.00;;;22.10;70.40;;;;;;5052748;28;20068;-94
2022/08/31 00:07:50;;;;;;;2.90;1.20;;;22.10;70.20;;;;;;5063082;28;20025;-93
2022/08/31 00:10:18;;;;;;;2.17;1.20;;;22.10;70.60;;;;;;5050635;28;20012;-94
2022/08/31 00:12:47;;;;;;;2.30;1.30;;;22.00;70.50;;;;;;5030750;28;20033;-92
2022/08/31 00:15:16;;;;;;;5.20;1.40;;;22.00;70.60;;;;;;5038982;28;20475;-95
2022/08/31 00:17:42;;;;;;;5.30;1.40;;;22.00;70.70;;;;;;5044330;28;20076;-94
2022/08/31 00:20:10;;;;;;;2.67;1.20;;;22.00;70.90;;;;;;5075375;28;20029;-93
2022/08/31 00:22:36;;;;;;;2.40;1.30;;;21.90;70.80;;;;;;5036375;28;20033;-93
2022/08/31 00:25:02;;;;;;;2.20;1.30;;;21.90;70.90;;;;;;5045615;28;20025;-94
2022/08/31 00:27:28;;;;;;;3.67;1.58;;;21.90;71.00;;;;;;5045697;28;20473;-94
2022/08/31 00:29:53;;;;;;;2.78;1.35;;;21.90;71.20;;;;;;5024504;28;20053;-94
2022/08/31 00:32:19;;;;;;;5.25;1.38;;;21.80;71.20;;;;;;5050672;28;20033;-94
2022/08/31 00:34:45;;;;;;;3.15;1.15;;;21.80;71.20;;;;;;5060801;28;20052;-93
2022/08/31 00:37:11;;;;;;;4.30;1.30;;;21.80;71.20;;;;;;5040263;28;20033;-94
2022/08/31 00:39:36;;;;;;;1.88;1.15;;;21.70;71.30;;;;;;5036103;28;20022;-94
2022/08/31 00:42:06;;;;;;;1.85;1.17;;;21.70;71.30;;;;;;5037058;28;20604;-93
2022/08/31 00:44:35;;;;;;;2.35;1.20;;;21.70;71.40;;;;;;5024911;28;20056;-93
2022/08/31 00:47:00;;;;;;;3.20;1.55;;;21.70;71.40;;;;;;5043145;28;20021;-93
2022/08/31 00:49:31;;;;;;;1.88;1.30;;;21.60;71.30;;;;;;5040438;28;20022;-93
2022/08/31 00:52:28;;;;;;;5.45;1.30;;;21.60;71.50;;;;;;5043501;28;20051;-92
2022/08/31 00:54:58;;;;;;;2.22;1.38;;;21.60;71.60;;;;;;5029462;28;20132;-92
2022/08/31 00:57:31;;;;;;;3.13;1.52;;;21.50;71.60;;;;;;5043712;28;20072;-93
2022/08/31 01:00:00;;;;;;;3.55;1.30;;;21.50;71.70;;;;;;5024503;28;20088;-93
2022/08/31 01:02:26;;;;;;;3.17;1.20;;;21.50;71.70;;;;;;5042417;28;20025;-93
2022/08/31 01:04:52;;;;;;;2.20;1.27;;;21.50;71.90;;;;;;5074097;28;20028;-95
2022/08/31 01:07:20;;;;;;;1.73;1.25;;;21.40;72.00;;;;;;5036088;28;20022;-93
2022/08/31 01:09:46;;;;;;;2.22;1.30;;;21.40;72.10;;;;;;5070702;28;20431;-92
2022/08/31 01:12:12;;;;;;;2.70;1.23;;;21.40;72.10;;;;;;5056962;28;20053;-93
2022/08/31 01:14:38;;;;;;;2.03;1.40;;;21.30;72.10;;;;;;5073103;28;20021;-93
2022/08/31 01:17:05;;;;;;;3.78;1.63;;;21.30;72.20;;;;;;5065351;28;20052;-92
2022/08/31 01:20:12;;;;;;;3.03;1.50;;;21.30;72.40;;;;;;5059353;28;20045;-93
2022/08/31 01:22:50;;;;;;;2.65;1.35;;;21.20;72.40;;;;;;5058948;28;20021;-93
2022/08/31 01:25:17;;;;;;;2.80;1.30;;;21.20;72.40;;;;;;5072371;28;20018;-92
2022/08/31 01:27:44;;;;;;;3.20;1.20;;;21.20;72.50;;;;;;5081940;28;20033;-90
2022/08/31 01:30:12;;;;;;;3.10;1.30;;;21.20;72.70;;;;;;5096065;28;20009;-92
2022/08/31 01:32:38;;;;;;;2.63;1.50;;;21.10;72.70;;;;;;5059633;28;20021;-93
2022/08/31 01:35:06;;;;;;;3.50;1.42;;;21.10;72.70;;;;;;5055380;28;20037;-91
2022/08/31 01:37:32;;;;;;;2.58;1.27;;;21.10;72.60;;;;;;5069670;28;20060;-94
2022/08/31 01:40:02;;;;;;;3.58;1.20;;;21.10;72.70;;;;;;5082937;28;20036;-93
2022/08/31 01:42:28;;;;;;;2.22;1.30;;;21.00;72.70;;;;;;5064060;28;20025;-93
2022/08/31 01:44:54;;;;;;;2.95;1.52;;;21.00;72.70;;;;;;5071226;28;20047;-93
2022/08/31 01:47:19;;;;;;;2.60;1.20;;;21.00;72.60;;;;;;5056261;28;20030;-90
2022/08/31 01:49:45;;;;;;;2.92;1.58;;;20.90;72.60;;;;;;5061526;28;20036;-89
2022/08/31 01:52:11;;;;;;;3.20;1.50;;;20.90;72.50;;;;;;5073469;28;20068;-94
2022/08/31 01:54:36;;;;;;;2.30;1.20;;;20.90;72.60;;;;;;5041646;28;20093;-95
2022/08/31 01:57:02;;;;;;;2.45;1.25;;;20.80;72.70;;;;;;5052975;28;20049;-94
2022/08/31 01:59:28;;;;;;;2.42;1.00;;;20.80;72.70;;;;;;5029667;28;20022;-93
2022/08/31 02:01:55;;;;;;;2.17;1.20;;;20.80;72.80;;;;;;5033490;28;20025;-91
2022/08/31 02:04:22;;;;;;;2.28;1.13;;;20.70;72.80;;;;;;5033920;28;20021;-93
2022/08/31 02:06:52;;;;;;;3.17;1.30;;;20.70;72.90;;;;;;5033590;28;20045;-93
2022/08/31 02:09:18;;;;;;;2.88;1.20;;;20.70;73.00;;;;;;5036507;28;20033;-93
2022/08/31 02:11:44;;;;;;;2.85;1.45;;;20.70;73.10;;;;;;5061404;28;20038;-91
2022/08/31 02:14:10;;;;;;;2.70;1.30;;;20.60;73.20;;;;;;5034100;28;20031;-91
2022/08/31 02:16:37;;;;;;;2.85;1.40;;;20.60;73.20;;;;;;5038740;28;20028;-91
2022/08/31 02:19:04;;;;;;;2.58;1.30;;;20.50;73.20;;;;;;5046869;28;20079;-92
2022/08/31 02:21:30;;;;;;;3.42;1.17;;;20.50;73.10;;;;;;5034416;28;20028;-91
2022/08/31 02:23:55;;;;;;;2.67;1.15;;;20.50;73.10;;;;;;5048936;28;20034;-93
2022/08/31 02:26:21;;;;;;;3.90;1.10;;;20.50;73.00;;;;;;5049265;28;20029;-92
2022/08/31 02:28:47;;;;;;;2.45;1.23;;;20.50;73.20;;;;;;5036147;28;20024;-95
2022/08/31 02:31:13;;;;;;;2.35;1.08;;;20.40;73.20;;;;;;5038006;28;20029;-91
2022/08/31 02:33:39;;;;;;;1.25;1.00;;;20.40;73.00;;;;;;5067325;28;20079;-93
2022/08/31 02:36:05;;;;;;;2.10;1.08;;;20.30;72.90;;;;;;5064641;28;20260;-92
2022/08/31 02:38:35;;;;;;;1.67;0.95;;;20.30;72.90;;;;;;5058272;28;20366;-92
2022/08/31 02:41:01;;;;;;;1.63;0.70;;;20.30;72.90;;;;;;5042218;28;20014;-93
2022/08/31 02:43:30;;;;;;;1.83;1.10;;;20.30;72.90;;;;;;5024780;28;20845;-91
2022/08/31 02:45:56;;;;;;;1.30;1.05;;;20.30;72.70;;;;;;5055507;28;20029;-93
2022/08/31 02:48:22;;;;;;;1.83;1.13;;;20.20;72.50;;;;;;5085300;28;20029;-93
2022/08/31 02:50:50;;;;;;;1.73;1.10;;;20.20;72.60;;;;;;5054713;28;20077;-91
2022/08/31 02:53:18;;;;;;;2.03;0.90;;;20.20;72.80;;;;;;5052071;28;20053;-89
2022/08/31 02:55:44;;;;;;;4.18;1.40;;;20.10;72.80;;;;;;5036631;28;20088;-92
2022/08/31 02:58:16;;;;;;;2.60;1.10;;;20.10;72.70;;;;;;5062901;28;20032;-92
2022/08/31 03:00:46;;;;;;;2.20;1.30;;;20.10;72.70;;;;;;5054894;28;20025;-92
2022/08/31 03:03:13;;;;;;;1.50;1.10;;;20.00;72.70;;;;;;5024398;28;20116;-92
2022/08/31 03:05:39;;;;;;;1.48;0.98;;;20.00;72.70;;;;;;5039867;28;20268;-92
2022/08/31 03:08:05;;;;;;;2.45;1.20;;;20.00;72.80;;;;;;5020140;28;20036;-92
2022/08/31 03:10:31;;;;;;;2.03;1.23;;;20.00;72.90;;;;;;5020058;28;20148;-92
2022/08/31 03:12:57;;;;;;;1.75;1.25;;;19.90;72.90;;;;;;5019248;28;20056;-93
2022/08/31 03:15:24;;;;;;;1.98;1.20;;;19.90;72.80;;;;;;5027541;28;20033;-92
2022/08/31 03:17:50;;;;;;;2.05;1.20;;;19.90;73.00;;;;;;5057972;28;20021;-93
2022/08/31 03:20:19;;;;;;;2.72;1.48;;;19.80;72.80;;;;;;5028741;28;20380;-91
2022/08/31 03:22:45;;;;;;;3.58;1.40;;;19.80;72.80;;;;;;5026338;28;20051;-93
2022/08/31 03:25:10;;;;;;;1.95;1.20;;;19.80;72.60;;;;;;5039256;28;20116;-93
2022/08/31 03:27:37;;;;;;;1.23;1.00;;;19.80;72.60;;;;;;5018433;28;20485;-93
2022/08/31 03:30:09;;;;;;;3.60;1.45;;;19.70;72.60;;;;;;5011415;28;20028;-93
2022/08/31 03:32:35;;;;;;;2.95;1.60;;;19.70;72.60;;;;;;5028947;28;20057;-93
2022/08/31 03:35:02;;;;;;;1.75;1.00;;;19.70;72.60;;;;;;5021383;28;20380;-93
2022/08/31 03:37:28;;;;;;;2.55;1.65;;;19.60;72.50;;;;;;5044665;28;20048;-94
2022/08/31 03:39:54;;;;;;;2.40;1.15;;;19.60;72.50;;;;;;5005012;28;20021;-92
2022/08/31 03:42:19;;;;;;;1.80;1.25;;;19.60;72.50;;;;;;5026995;28;20021;-93
2022/08/31 03:44:46;;;;;;;2.80;1.17;;;19.60;72.40;;;;;;5038626;28;20040;-94
2022/08/31 03:47:13;;;;;;;1.15;0.90;;;19.50;72.40;;;;;;5047468;28;20022;-90
2022/08/31 03:49:39;;;;;;;2.25;0.98;;;19.50;72.30;;;;;;5027386;28;20055;-94
2022/08/31 03:52:04;;;;;;;2.55;1.30;;;19.40;72.20;;;;;;5022491;28;20137;-94
2022/08/31 03:54:30;;;;;;;2.17;1.08;;;19.40;72.20;;;;;;5028194;28;20034;-93
2022/08/31 03:56:56;;;;;;;1.55;1.10;;;19.40;72.10;;;;;;5048837;28;20025;-93
2022/08/31 03:59:22;;;;;;;1.50;1.10;;;19.40;72.10;;;;;;5045097;28;20056;-93
2022/08/31 04:01:47;;;;;;;1.42;0.90;;;19.30;72.10;;;;;;5044397;28;20037;-93
2022/08/31 04:04:14;;;;;;;1.45;0.90;;;19.30;72.10;;;;;;5038489;28;20022;-94
2022/08/31 04:06:41;;;;;;;1.30;1.10;;;19.30;72.00;;;;;;5055583;28;20095;-91
2022/08/31 04:09:07;;;;;;;2.10;0.90;;;19.30;72.10;;;;;;5046893;28;20017;-91
2022/08/31 04:11:33;;;;;;;3.95;1.23;;;19.20;72.00;;;;;;5056232;28;20565;-94
2022/08/31 04:13:59;;;;;;;1.75;0.90;;;19.20;72.00;;;;;;5055819;28;20596;-92
2022/08/31 04:16:25;;;;;;;3.00;1.15;;;19.20;72.00;;;;;;5043210;28;20041;-92
2022/08/31 04:18:52;;;;;;;1.77;1.00;;;19.10;72.00;;;;;;5073302;28;20033;-92
2022/08/31 04:21:24;;;;;;;3.63;1.02;;;19.10;71.80;;;;;;5078938;28;20081;-90
2022/08/31 04:23:50;;;;;;;1.42;1.00;;;19.10;71.90;;;;;;5080941;28;20013;-91
2022/08/31 04:26:25;;;;;;;1.33;0.90;;;19.10;71.80;;;;;;5056829;28;20026;-90
2022/08/31 04:28:52;;;;;;;1.77;1.02;;;19.00;71.90;;;;;;5076004;28;20017;-89
2022/08/31 04:31:20;;;;;;;2.20;1.08;;;19.00;71.90;;;;;;5074897;28;20098;-94
2022/08/31 04:33:46;;;;;;;1.42;0.88;;;19.00;72.00;;;;;;5083429;28;20034;-91
2022/08/31 04:36:14;;;;;;;1.00;0.80;;;18.90;71.80;;;;;;5078929;28;20023;-91
2022/08/31 04:38:45;;;;;;;0.82;0.80;;;18.90;71.70;;;;;;5075118;28;20060;-91
2022/08/31 04:41:13;;;;;;;0.80;0.75;;;18.90;71.90;;;;;;5092911;28;20016;-91
2022/08/31 04:43:42;;;;;;;1.58;0.88;;;18.90;72.00;;;;;;5056215;28;20006;-94
2022/08/31 04:46:08;;;;;;;2.22;0.85;;;18.80;72.00;;;;;;5053252;28;20025;-92
2022/08/31 04:48:34;;;;;;;2.10;1.10;;;18.80;71.90;;;;;;5096437;28;20031;-93
2022/08/31 04:51:06;;;;;;;1.75;0.90;;;18.80;71.90;;;;;;5059295;28;20008;-92
2022/08/31 04:53:36;;;;;;;1.33;1.00;;;18.80;71.90;;;;;;5046579;28;20037;-93
2022/08/31 04:56:14;;;;;;;1.42;1.00;;;18.80;71.90;;;;;;5058214;28;20077;-88
2022/08/31 04:58:54;;;;;;;1.65;1.08;;;18.70;71.90;;;;;;5041842;28;20025;-91
2022/08/31 05:01:23;;;;;;;3.50;1.17;;;18.80;72.00;;;;;;5042330;28;20105;-93
2022/08/31 05:03:51;;;;;;;3.92;1.10;;;18.70;72.00;;;;;;5044873;28;20009;-92
2022/08/31 05:06:19;;;;;;;1.20;0.85;;;18.70;72.00;;;;;;5042883;28;20055;-81
2022/08/31 05:08:46;;;;;;;2.10;1.00;;;18.70;72.00;;;;;;5070208;28;20088;-78
2022/08/31 05:11:17;;;;;;;2.47;1.30;;;18.60;71.80;;;;;;5040671;28;20033;-80
2022/08/31 05:13:43;;;;;;;1.33;1.00;;;18.60;71.90;;;;;;5049653;28;20045;-80
2022/08/31 05:16:10;;;;;;;0.95;0.70;;;18.60;71.80;;;;;;5024383;28;20388;-80
2022/08/31 05:18:41;;;;;;;1.45;0.68;;;18.60;71.80;;;;;;5060452;28;20017;-93
2022/08/31 05:21:27;;;;;;;1.10;0.88;;;18.60;71.80;;;;;;5044220;28;20030;-93
2022/08/31 05:24:14;;;;;;;1.20;0.80;;;18.50;71.70;;;;;;5042057;28;20017;-91
2022/08/31 05:26:43;;;;;;;0.88;0.82;;;18.50;71.50;;;;;;5046506;28;20021;-92
2022/08/31 05:29:12;;;;;;;2.03;1.17;;;18.50;71.40;;;;;;5055617;28;20021;-94
2022/08/31 05:31:39;;;;;;;3.92;0.90;;;18.50;71.60;;;;;;5044510;28;20022;-92
2022/08/31 05:34:05;;;;;;;2.97;1.20;;;18.50;71.60;;;;;;5012909;28;20458;-93
2022/08/31 05:36:31;;;;;;;2.90;0.98;;;18.40;71.60;;;;;;5020566;28;20033;-93
2022/08/31 05:38:59;;;;;;;3.28;0.90;;;18.40;71.70;;;;;;5022344;28;20032;-93
2022/08/31 05:41:25;;;;;;;3.00;0.68;;;18.40;71.70;;;;;;5015384;28;20166;-93
2022/08/31 05:43:51;;;;;;;1.40;0.88;;;18.40;71.90;;;;;;5045572;28;20026;-92
2022/08/31 05:46:17;;;;;;;1.02;0.77;;;18.40;71.90;;;;;;5009940;28;20031;-93
2022/08/31 05:48:43;;;;;;;2.78;0.93;;;18.40;71.90;;;;;;5020535;28;20075;-92
2022/08/31 05:51:12;;;;;;;1.77;0.80;;;18.40;71.80;;;;;;5014824;28;20026;-91
2022/08/31 05:53:38;;;;;;;2.42;0.90;;;18.40;71.70;;;;;;5014004;28;20033;-94
2022/08/31 05:56:10;;;;;;;1.35;0.90;;;18.40;71.70;;;;;;5018093;28;20420;-94
2022/08/31 05:58:40;;;;;;;2.47;1.10;;;18.30;71.50;;;;;;5023684;28;20029;-93
2022/08/31 06:01:15;;;;;;;3.00;0.70;;;18.30;71.20;;;;;;5016451;28;20482;-94
2022/08/31 06:03:45;;;;;;;0.90;0.63;;;18.30;71.20;;;;;;5039909;28;20030;-93
2022/08/31 06:06:14;;;;;;;2.63;0.90;;;18.30;71.10;;;;;;5038856;28;20018;-91
2022/08/31 06:08:43;;;;;;;1.50;0.90;;;18.30;71.00;;;;;;5048185;28;20023;-92
2022/08/31 06:11:22;;;;;;;0.80;0.60;;;18.30;70.90;;;;;;5015664;28;20037;-92
2022/08/31 06:13:51;;;;;;;1.30;0.68;;;18.30;71.00;;;;;;5011133;28;20049;-92
2022/08/31 06:16:21;;;;;;;1.92;1.05;;;18.30;71.00;;;;;;5037193;28;20029;-95
2022/08/31 06:18:52;;;;;;;1.48;0.85;;;18.30;71.00;;;;;;5036844;28;20060;-91
2022/08/31 06:21:21;;;;;;;2.13;0.93;;;18.30;71.10;;;;;;5014032;28;20045;-91
2022/08/31 06:23:50;;;;;;;1.48;0.80;;;18.30;71.20;;;;;;5028981;28;20146;-94
2022/08/31 06:26:29;;;;;;;1.58;0.98;;;18.30;71.10;;;;;;5011517;28;20437;-93
2022/08/31 06:29:01;;;;;;;1.80;0.80;;;18.30;71.20;;;;;;5017208;28;20026;-93
2022/08/31 06:31:44;;;;;;;1.52;1.02;;;18.30;71.20;;;;;;5017721;28;20017;-94
2022/08/31 06:34:10;;;;;;;2.95;0.88;;;18.30;71.10;;;;;;5012785;28;20469;-95
2022/08/31 06:36:35;;;;;;;1.60;0.90;;;18.30;71.30;;;;;;5016490;28;20084;-94
2022/08/31 06:39:04;;;;;;;2.22;0.70;;;18.30;71.30;;;;;;5024608;28;20029;-93
2022/08/31 06:41:38;;;;;;;4.63;1.83;;;18.30;71.40;;;;;;5014167;28;20064;-94
2022/08/31 06:44:09;;;;;;;1.25;0.90;;;18.30;71.50;;;;;;5017166;28;20018;-94
2022/08/31 06:46:39;;;;;;;0.75;0.70;;;18.30;71.40;;;;;;5018006;28;20100;-95
2022/08/31 06:49:05;;;;;;;1.73;0.75;;;18.30;71.40;;;;;;5014413;28;20028;-94
2022/08/31 06:51:41;;;;;;;1.55;1.00;;;18.30;71.50;;;;;;5027877;28;20068;-93
2022/08/31 06:54:11;;;;;;;1.27;0.77;;;18.20;71.60;;;;;;5041519;28;20021;-93
2022/08/31 06:56:38;;;;;;;1.67;1.00;;;18.20;71.70;;;;;;5018266;28;20025;-93
2022/08/31 06:59:05;;;;;;;1.77;0.90;;;18.20;71.70;;;;;;5027151;28;20123;-91
2022/08/31 07:01:32;;;;;;;2.60;0.82;;;18.20;71.60;;;;;;5017042;28;20404;-95
2022/08/31 07:04:00;;;;;;;1.70;0.90;;;18.20;71.60;;;;;;5018837;28;20035;-82
2022/08/31 07:06:28;;;;;;;0.77;0.65;;;18.20;71.70;;;;;;5018603;28;20084;-81
2022/08/31 07:09:00;;;;;;;1.38;0.82;;;18.20;71.70;;;;;;5017240;28;20024;-82
2022/08/31 07:11:32;;;;;;;3.45;1.13;;;18.20;71.80;;;;;;5033827;28;20152;-82
2022/08/31 07:13:59;;;;;;;2.25;0.82;;;18.20;71.80;;;;;;5034755;28;20041;-82
2022/08/31 07:16:26;;;;;;;0.93;0.70;;;18.30;72.00;;;;;;5033210;28;20476;-81
2022/08/31 07:18:54;;;;;;;1.98;0.93;;;18.30;72.20;;;;;;5011386;28;20035;-82
2022/08/31 07:21:24;;;;;;;1.75;0.80;;;18.20;72.40;;;;;;5027163;28;20049;-82
2022/08/31 07:23:50;;;;;;;1.60;0.85;;;18.30;72.60;;;;;;5024548;28;20021;-82
2022/08/31 07:26:22;;;;;;;1.58;0.70;;;18.30;72.80;;;;;;5036949;28;20043;-82
2022/08/31 07:28:51;;;;;;;0.85;0.63;;;18.30;72.90;;;;;;5025946;28;20024;-81
2022/08/31 07:31:21;;;;;;;2.40;0.73;;;18.30;73.00;;;;;;5026258;28;20022;-84
2022/08/31 07:33:48;;;;;;;1.23;0.80;;;18.30;73.30;;;;;;5034539;28;20112;-82
2022/08/31 07:36:16;;;;;;;1.90;0.93;;;18.40;73.50;;;;;;5034695;28;20104;-82
2022/08/31 07:44:19;;;;;;;3.95;1.00;;;18.40;73.80;;;;;;5026595;28;20399;-82
2022/08/31 07:46:46;;;;;;;1.77;0.93;;;18.50;74.20;;;;;;5063163;28;20433;-81
2022/08/31 07:49:14;;;;;;;1.90;0.80;;;18.50;74.30;;;;;;5044726;28;20139;-78
2022/08/31 07:51:49;;;;;;;1.52;0.85;;;18.50;74.50;;;;;;5044672;28;20167;-80
2022/08/31 07:54:26;;;;;;;1.92;1.02;;;18.60;74.70;;;;;;5016740;28;20389;-80
2022/08/31 07:57:02;;;;;;;6.07;1.40;;;18.60;74.80;;;;;;5000109;28;20496;-80
2022/08/31 07:59:43;;;;;;;2.33;0.80;;;18.70;74.90;;;;;;5034983;28;20166;-93
2022/08/31 08:02:09;;;;;;;2.75;1.05;;;18.70;75.00;;;;;;5033596;28;20260;-90
2022/08/31 08:04:41;;;;;;;1.35;0.85;;;18.70;75.30;;;;;;5021022;28;20226;-91
2022/08/31 08:07:07;;;;;;;1.67;0.80;;;18.80;75.30;;;;;;5009133;28;20053;-86
2022/08/31 08:09:33;;;;;;;1.48;0.80;;;18.80;75.40;;;;;;5018729;28;20071;-85
2022/08/31 08:12:05;;;;;;;2.25;1.05;;;18.90;75.50;;;;;;5018833;28;20025;-86
2022/08/31 08:14:33;;;;;;;2.08;0.90;;;19.00;75.80;;;;;;5017952;28;20120;-87
2022/08/31 08:16:59;;;;;;;2.17;1.08;;;19.00;75.80;;;;;;5035280;28;20024;-85
2022/08/31 08:19:24;;;;;;;2.00;0.98;;;19.10;76.00;;;;;;5024901;28;20028;-85
2022/08/31 08:21:50;;;;;;;2.22;1.10;;;19.10;76.00;;;;;;5020116;28;20104;-86
2022/08/31 08:24:16;;;;;;;2.33;1.20;;;19.20;76.10;;;;;;5020589;28;20032;-86
2022/08/31 08:26:49;;;;;;;1.77;0.90;;;19.20;76.20;;;;;;5002625;28;20043;-86
2022/08/31 08:29:15;;;;;;;2.58;1.10;;;19.30;76.40;;;;;;5035984;28;20121;-86
2022/08/31 08:31:42;;;;;;;2.05;1.15;;;19.30;76.60;;;;;;5036101;28;20049;-86
2022/08/31 08:34:09;;;;;;;1.95;1.10;;;19.40;76.70;;;;;;5020712;28;20056;-85
2022/08/31 08:36:35;;;;;;;3.00;1.08;;;19.50;76.90;;;;;;5026001;28;20030;-86
2022/08/31 08:39:04;;;;;;;1.27;1.00;;;19.50;76.80;;;;;;5038898;28;20029;-87
2022/08/31 08:41:33;;;;;;;1.25;1.00;;;19.60;76.80;;;;;;5051718;28;20548;-86
2022/08/31 08:44:01;;;;;;;1.77;0.90;;;19.60;76.70;;;;;;5051602;28;20036;-88
2022/08/31 08:46:42;;;;;;;1.60;0.95;;;19.70;76.80;;;;;;5047060;28;20067;-87
2022/08/31 08:49:30;;;;;;;2.30;1.48;;;19.80;76.90;;;;;;5027300;28;20029;-86
2022/08/31 08:52:05;;;;;;;1.95;1.10;;;19.80;77.00;;;;;;5065580;28;20080;-85
2022/08/31 08:54:37;;;;;;;1.98;1.20;;;19.90;76.80;;;;;;5044429;28;20026;-87
2022/08/31 08:57:12;;;;;;;1.95;1.10;;;19.90;76.80;;;;;;5050128;28;20035;-86
2022/08/31 08:59:39;;;;;;;1.95;1.10;;;20.00;76.70;;;;;;5022320;28;20021;-90
2022/08/31 09:02:08;;;;;;;2.15;1.35;;;20.00;77.40;;;;;;5035178;28;20040;-89
2022/08/31 09:04:48;;;;;;;1.83;1.17;;;20.10;77.00;;;;;;5029359;28;20064;-91
2022/08/31 09:08:00;;;;;;;2.15;1.25;;;20.20;76.90;;;;;;5028427;28;20078;-90
2022/08/31 09:10:55;;;;;;;1.92;1.30;;;20.30;76.80;;;;;;5011643;28;20095;-91
2022/08/31 09:14:05;;;;;;;1.27;0.90;;;20.30;76.50;;;;;;5015792;28;20099;-93
2022/08/31 09:16:58;;;;;;;2.42;1.30;;;20.40;76.80;;;;;;5028933;28;20145;-90
2022/08/31 09:19:23;;;;;;;3.40;1.25;;;20.50;76.60;;;;;;5041611;28;20022;-92
2022/08/31 09:21:56;;;;;;;2.53;1.00;;;20.50;76.50;;;;;;5010331;28;20032;-92
2022/08/31 09:24:26;;;;;;;2.90;1.17;;;20.60;76.50;;;;;;5021981;28;20112;-92
2022/08/31 09:27:17;;;;;;;0.93;0.80;;;20.70;76.80;;;;;;5011922;28;20111;-92
2022/08/31 09:30:01;;;;;;;1.95;1.02;;;20.70;77.10;;;;;;5004194;28;20026;-94
2022/08/31 09:32:31;;;;;;;1.17;0.90;;;20.90;77.30;;;;;;5062140;28;20037;-92
2022/08/31 09:35:00;;;;;;;2.50;0.93;;;20.90;77.10;;;;;;5023257;28;20104;-93
2022/08/31 09:37:32;;;;;;;1.60;0.85;;;20.90;76.80;;;;;;5039169;28;20492;-92
2022/08/31 09:40:19;;;;;;;1.92;1.00;;;21.00;76.60;;;;;;5025847;28;20029;-92
2022/08/31 09:42:59;;;;;;;2.55;0.90;;;21.10;76.40;;;;;;5026984;28;20025;-80
2022/08/31 09:45:34;;;;;;;2.80;1.10;;;21.10;76.30;;;;;;5028240;28;20018;-81
2022/08/31 09:48:05;;;;;;;2.08;1.00;;;21.20;75.90;;;;;;5026625;28;20029;-81
2022/08/31 09:50:33;;;;;;;3.30;1.00;;;21.30;75.70;;;;;;5032580;28;20025;-79
2022/08/31 09:56:20;;;;;;;1.30;1.00;;;21.50;75.50;;;;;;5033029;28;20485;-88
2022/08/31 09:58:49;;;;;;;3.03;1.10;;;21.50;75.10;;;;;;5022790;28;20075;-87
2022/08/31 10:01:24;;;;;;;1.30;0.90;;;21.60;74.80;;;;;;5036510;28;20037;-89
2022/08/31 10:04:06;;;;;;;2.90;1.00;;;21.60;74.50;;;;;;5015964;28;20026;-89
2022/08/31 10:07:05;;;;;;;1.85;0.90;;;21.70;74.60;;;;;;5022703;28;20461;-88
2022/08/31 10:09:45;;;;;;;1.95;0.82;;;21.80;74.20;;;;;;5032134;28;20022;-88
2022/08/31 10:12:31;;;;;;;;;;;21.90;74.10;;;;;;5025144;28;20021;-87
2022/08/31 10:15:13;;;;;;;2.67;1.00;;;22.00;73.90;;;;;;5020037;28;19905;-89
2022/08/31 10:18:12;;;;;;;1.30;0.88;;;22.00;73.50;;;;;;5029102;28;20029;-89
2022/08/31 10:20:47;;;;;;;2.75;1.08;;;22.00;72.90;;;;;;5041178;28;20048;-92
2022/08/31 10:23:24;;;;;;;2.60;1.02;;;22.10;72.90;;;;;;5015784;28;20087;-90
2022/08/31 10:25:57;;;;;;;3.78;1.10;;;22.10;73.20;;;;;;5055070;28;20017;-89
2022/08/31 10:28:58;;;;;;;2.70;1.10;;;22.20;72.60;;;;;;5019393;28;20032;-88
2022/08/31 10:31:35;;;;;;;1.77;0.90;;;22.20;72.40;;;;;;4996025;28;20091;-88
2022/08/31 10:37:33;;;;;;;2.05;0.80;;;22.40;72.30;;;;;;5036662;28;20537;-89
2022/08/31 10:40:38;;;;;;;2.80;0.95;;;22.50;72.30;;;;;;5060438;28;20476;-88
2022/08/31 10:43:16;;;;;;;2.67;1.17;;;22.50;72.30;;;;;;5023853;28;20069;-89
2022/08/31 10:49:31;;;;;;;2.95;0.90;;;22.70;71.30;;;;;;5046039;28;20017;-88
2022/08/31 10:52:35;;;;;;;2.45;0.98;;;22.70;71.40;;;;;;5028942;28;20050;-90
2022/08/31 10:55:07;;;;;;;2.35;1.10;;;22.80;71.40;;;;;;5040635;28;20057;-88
2022/08/31 10:58:03;;;;;;;3.53;1.08;;;22.80;71.90;;;;;;5038634;28;20037;-89
2022/08/31 11:03:40;;;;;;;;;;;23.00;70.90;;;;;;5031064;28;20033;-82
2022/08/31 11:06:14;;;;;;;8.40;1.42;;;23.00;70.60;;;;;;5063645;28;19916;-81
2022/08/31 11:08:48;;;;;;;1.30;1.00;;;23.00;70.30;;;;;;5015544;28;20525;-84
2022/08/31 11:11:46;;;;;;;3.90;1.10;;;23.10;69.80;;;;;;5048803;28;20025;-84
2022/08/31 11:14:43;;;;;;;1.98;0.82;;;23.20;69.60;;;;;;5033042;28;20025;-83
2022/08/31 11:17:21;;;;;;;2.03;1.00;;;23.20;69.60;;;;;;5046760;28;20045;-83
2022/08/31 11:20:11;;;;;;;1.77;0.80;;;23.30;69.70;;;;;;5034039;28;20022;-82
2022/08/31 11:23:05;;;;;;;3.35;1.02;;;23.40;69.80;;;;;;5048493;28;20037;-82
2022/08/31 11:25:46;;;;;;;1.30;0.80;;;23.40;69.70;;;;;;5032043;28;20022;-82
2022/08/31 11:28:47;;;;;;;3.33;1.00;;;23.50;69.70;;;;;;5036550;28;20481;-82
2022/08/31 11:31:26;;;;;;;2.65;1.35;;;23.60;69.70;;;;;;5034540;28;20077;-82
2022/08/31 11:33:56;;;;;;;2.25;1.00;;;23.60;69.60;;;;;;5037606;28;20109;-82
2022/08/31 11:36:42;;;;;;;1.73;1.20;;;23.70;69.30;;;;;;5037342;28;20032;-82
2022/08/31 11:39:07;;;;;;;1.17;0.63;;;23.70;68.90;;;;;;5035672;28;20124;-82
2022/08/31 11:41:43;;;;;;;2.30;0.80;;;23.80;69.00;;;;;;5046108;28;20104;-81
2022/08/31 11:44:29;;;;;;;2.40;0.90;;;23.80;68.90;;;;;;5035951;28;20029;-83
2022/08/31 11:47:29;;;;;;;1.30;1.00;;;23.90;68.50;;;;;;5038604;28;20026;-83
2022/08/31 11:50:04;;;;;;;2.08;0.88;;;24.00;68.50;;;;;;5034760;28;20014;-84
2022/08/31 11:52:39;;;;;;;2.00;1.30;;;24.10;68.40;;;;;;5036035;28;20175;-83
2022/08/31 11:55:27;;;;;;;0.82;0.80;;;24.20;68.30;;;;;;5042432;28;20029;-82
2022/08/31 11:58:06;;;;;;;1.90;0.98;;;24.30;68.30;;;;;;5018701;28;20025;-82
2022/08/31 12:00:40;;;;;;;2.67;1.00;;;24.40;67.80;;;;;;5049831;28;20028;-83
2022/08/31 12:03:08;;;;;;;4.60;1.25;;;24.40;67.60;;;;;;5054260;28;20053;-82
2022/08/31 12:05:58;;;;;;;2.97;1.23;;;24.50;67.70;;;;;;5014459;28;20021;-81
2022/08/31 12:08:31;;;;;;;3.03;1.17;;;24.50;67.20;;;;;;5018209;28;20072;-84
2022/08/31 12:11:35;;;;;;;1.33;0.90;;;24.60;67.00;;;;;;5046473;28;20056;-78
2022/08/31 12:14:29;;;;;;;2.70;1.10;;;24.60;66.00;;;;;;5047550;28;20138;-77
2022/08/31 12:17:26;;;;;;;1.38;1.00;;;24.70;65.80;;;;;;5016008;28;20524;-77
2022/08/31 12:20:11;;;;;;;2.08;0.93;;;24.80;65.70;;;;;;5021581;28;20022;-86
2022/08/31 12:26:18;;;;;;;1.80;1.00;;;24.90;65.30;;;;;;5023892;28;20032;-88
2022/08/31 12:29:37;;;;;;;;;;;;;;;;;;;;;
2022/08/31 12:32:45;;;;;;;;;;;;;;;;;;;;;
2022/08/31 12:35:45;;;;;;;;;;;;;;;;;;;;;
2022/08/31 12:39:10;;;;;;;;;;;;;;;;;;;;;
2022/08/31 12:42:14;;;;;;;1.85;1.00;;;25.30;64.90;;;;;;5021374;28;20048;-88
2022/08/31 12:45:19;;;;;;;1.25;1.13;;;25.50;64.80;;;;;;5005175;28;20025;-89
2022/08/31 12:48:42;;;;;;;;;;;;;;;;;;;;;
2022/08/31 12:51:45;;;;;;;2.63;1.20;;;25.60;64.00;;;;;;5033207;28;20373;-87
2022/08/31 12:54:31;;;;;;;2.92;1.10;;;25.60;63.20;;;;;;5013649;28;20030;-88
2022/08/31 12:57:46;;;;;;;1.70;0.98;;;25.70;63.20;;;;;;5008418;28;20056;-86
2022/08/31 13:00:42;;;;;;;1.25;0.80;;;25.80;63.40;;;;;;4973034;28;20042;-86
2022/08/31 13:03:14;;;;;;;4.85;1.02;;;25.80;63.10;;;;;;5012446;28;20478;-90
2022/08/31 13:05:40;;;;;;;3.53;1.20;;;25.90;63.00;;;;;;5010998;28;20034;-90
2022/08/31 13:08:23;;;;;;;4.70;1.17;;;26.00;62.90;;;;;;5026335;28;20120;-91
2022/08/31 13:10:48;;;;;;;3.50;1.10;;;26.00;62.80;;;;;;5039063;28;20307;-90
2022/08/31 13:13:28;;;;;;;2.22;0.80;;;26.10;62.60;;;;;;5019780;28;20041;-90
2022/08/31 13:16:06;;;;;;;9.05;1.40;;;26.20;62.30;;;;;;4985340;28;20049;-90
2022/08/31 13:18:33;;;;;;;1.58;1.05;;;26.30;62.40;;;;;;4987077;28;20474;-90
2022/08/31 13:21:07;;;;;;;2.92;1.25;;;26.30;61.90;;;;;;5009040;28;20040;-91
2022/08/31 13:23:37;;;;;;;1.23;0.82;;;26.40;61.60;;;;;;5011990;28;20026;-91
2022/08/31 13:26:21;;;;;;;4.32;1.17;;;26.40;61.30;;;;;;5002302;28;20405;-91
2022/08/31 13:28:54;;;;;;;1.35;0.98;;;26.50;61.10;;;;;;4985942;28;20076;-88
2022/08/31 13:31:29;;;;;;;2.42;1.23;;;26.50;61.20;;;;;;5012280;28;20029;-89
2022/08/31 13:34:01;;;;;;;2.53;1.20;;;26.60;61.00;;;;;;4998377;28;20100;-87
2022/08/31 13:36:45;;;;;;;2.03;1.02;;;26.60;60.80;;;;;;5021232;28;20060;-86
2022/08/31 13:39:33;;;;;;;1.42;1.20;;;26.70;60.50;;;;;;5014715;28;20100;-86
2022/08/31 13:42:38;;;;;;;4.60;1.30;;;26.70;59.90;;;;;;4999833;28;20033;-88
2022/08/31 13:45:12;;;;;;;1.48;1.10;;;26.80;59.70;;;;;;5015853;28;20017;-87
2022/08/31 13:47:38;;;;;;;1.45;1.10;;;26.80;59.80;;;;;;5018570;28;20093;-87
2022/08/31 13:50:14;;;;;;;1.88;1.13;;;26.80;59.70;;;;;;5005854;28;20025;-92
2022/08/31 13:52:49;;;;;;;3.70;1.25;;;26.90;59.50;;;;;;5040466;28;20043;-87